Time;durP1;ratioP1;P1;durP2;ratioP2;P2;SDS_P1;SDS_P2;PMS_P1;PMS_P2;Temp;Humidity;BMP_temperature;BMP_pressure;BME280_temperature;BME280_humidity;BME280_pressure;Samples;Min_cycle;Max_cycle;Signal;HPM_P1;HPM_P2
2022/12/07 00:01:17;;;;;;;1.73;0.95;;;2.90;99.90;;;;;;5115350;28;20550;-65
2022/12/07 00:03:44;;;;;;;0.80;0.70;;;2.90;99.90;;;;;;5115088;28;20080;-64
2022/12/07 00:06:12;;;;;;;1.85;1.02;;;2.90;99.90;;;;;;5115220;27;20078;-64
2022/12/07 00:08:38;;;;;;;2.10;1.10;;;2.90;99.90;;;;;;5115249;28;20041;-64
2022/12/07 00:11:06;;;;;;;1.45;0.60;;;3.00;99.90;;;;;;5113916;28;20475;-64
2022/12/07 00:13:33;;;;;;;2.30;1.08;;;3.00;99.90;;;;;;5114874;28;20036;-65
2022/12/07 00:16:04;;;;;;;5.82;0.90;;;3.10;99.90;;;;;;5115109;28;20118;-64
2022/12/07 00:18:30;;;;;;;1.67;0.75;;;3.20;99.90;;;;;;5114770;28;20036;-64
2022/12/07 00:21:04;;;;;;;0.40;0.40;;;3.20;99.90;;;;;;5114967;28;20165;-64
2022/12/07 00:23:30;;;;;;;2.63;0.55;;;3.20;99.90;;;;;;5114660;28;20031;-64
2022/12/07 00:25:55;;;;;;;1.13;0.50;;;3.20;99.90;;;;;;5114579;28;20046;-64
2022/12/07 00:28:21;;;;;;;1.48;0.52;;;3.10;99.90;;;;;;5114037;28;20035;-64
2022/12/07 00:30:47;;;;;;;5.65;1.10;;;3.20;99.90;;;;;;5114727;28;20114;-65
2022/12/07 00:33:12;;;;;;;1.35;0.52;;;3.20;99.90;;;;;;5114742;28;20037;-64
2022/12/07 00:35:38;;;;;;;0.82;0.50;;;3.20;99.90;;;;;;5114667;28;20078;-64
2022/12/07 00:38:03;;;;;;;0.77;0.40;;;3.20;99.90;;;;;;5113074;28;20092;-64
2022/12/07 00:40:29;;;;;;;1.95;0.60;;;3.20;99.90;;;;;;5114555;28;20092;-64
2022/12/07 00:42:54;;;;;;;3.47;0.68;;;3.20;99.90;;;;;;5147441;27;20545;-64
2022/12/07 00:45:20;;;;;;;1.10;0.70;;;3.20;99.90;;;;;;5147134;27;20403;-64
2022/12/07 00:47:45;;;;;;;4.80;0.22;;;3.10;99.90;;;;;;5114240;28;20108;-64
2022/12/07 00:50:11;;;;;;;1.63;0.65;;;3.20;99.90;;;;;;5114389;28;20139;-67
2022/12/07 00:52:36;;;;;;;1.45;0.50;;;3.10;99.90;;;;;;5114349;28;20528;-64
2022/12/07 00:55:02;;;;;;;5.53;1.20;;;3.10;99.90;;;;;;5114294;28;20386;-64
2022/12/07 00:57:29;;;;;;;0.57;0.45;;;3.10;99.90;;;;;;5147127;27;20112;-65
2022/12/07 00:59:57;;;;;;;0.77;0.28;;;3.00;99.90;;;;;;5114268;28;20116;-64
2022/12/07 01:02:23;;;;;;;5.80;0.80;;;3.00;99.90;;;;;;5112703;28;20047;-64
2022/12/07 01:04:48;;;;;;;4.13;0.55;;;3.00;99.90;;;;;;5113802;28;20054;-64
2022/12/07 01:07:14;;;;;;;1.90;0.43;;;3.10;99.90;;;;;;5113852;28;20118;-64
2022/12/07 01:09:39;;;;;;;0.20;0.20;;;3.10;99.90;;;;;;5114066;28;20110;-64
2022/12/07 01:12:05;;;;;;;0.98;0.32;;;3.10;99.90;;;;;;5114029;28;20032;-64
2022/12/07 01:14:30;;;;;;;3.58;0.68;;;3.30;99.90;;;;;;5114022;28;20070;-64
2022/12/07 01:16:56;;;;;;;0.65;0.40;;;3.10;99.90;;;;;;5095378;28;20048;-64
2022/12/07 01:19:22;;;;;;;4.15;0.40;;;3.10;99.90;;;;;;5113896;28;20043;-64
2022/12/07 01:21:47;;;;;;;1.77;0.65;;;3.00;99.90;;;;;;5113934;28;20070;-64
2022/12/07 01:24:13;;;;;;;1.00;0.52;;;3.10;99.90;;;;;;5113768;28;20176;-64
2022/12/07 01:26:38;;;;;;;2.47;0.65;;;3.10;99.90;;;;;;5113531;28;20078;-64
2022/12/07 01:29:04;;;;;;;3.00;0.40;;;3.10;99.90;;;;;;5112296;28;20027;-64
2022/12/07 01:31:30;;;;;;;2.95;0.60;;;3.10;99.90;;;;;;5112200;28;20044;-64
2022/12/07 01:33:58;;;;;;;1.10;0.75;;;3.10;99.90;;;;;;5113417;28;20082;-65
2022/12/07 01:36:34;;;;;;;1.48;0.70;;;3.10;99.90;;;;;;5112457;28;20498;-64
2022/12/07 01:39:05;;;;;;;0.40;0.38;;;3.10;99.90;;;;;;5095190;28;20036;-65
2022/12/07 01:41:33;;;;;;;1.60;0.47;;;3.10;99.90;;;;;;5113539;28;20040;-64
2022/12/07 01:44:21;;;;;;;1.92;0.80;;;3.10;99.90;;;;;;5113217;28;20410;-65
2022/12/07 01:46:48;;;;;;;3.60;0.77;;;3.00;99.90;;;;;;5112389;28;20055;-64
2022/12/07 01:49:35;;;;;;;5.07;0.47;;;3.00;99.90;;;;;;5113548;28;20486;-65
2022/12/07 01:52:26;;;;;;;1.27;0.52;;;3.00;99.90;;;;;;5113568;28;20081;-64
2022/12/07 01:54:56;;;;;;;1.27;0.40;;;3.00;99.90;;;;;;5113235;28;20039;-64
2022/12/07 01:57:22;;;;;;;2.50;0.43;;;2.90;99.90;;;;;;5112202;28;20048;-64
2022/12/07 01:59:50;;;;;;;1.55;0.50;;;2.90;99.90;;;;;;5113511;28;20061;-64
2022/12/07 02:02:25;;;;;;;1.45;0.47;;;2.90;99.90;;;;;;5111947;28;20051;-64
2022/12/07 02:04:53;;;;;;;2.03;0.40;;;3.00;99.90;;;;;;5113064;28;20099;-64
2022/12/07 02:07:20;;;;;;;0.70;0.30;;;3.00;99.90;;;;;;5112201;28;20096;-65
2022/12/07 02:09:46;;;;;;;2.40;0.60;;;3.00;99.90;;;;;;5113473;28;20040;-64
2022/12/07 02:12:11;;;;;;;2.35;0.20;;;3.10;99.90;;;;;;5113285;28;20540;-65
2022/12/07 02:14:37;;;;;;;0.47;0.30;;;3.20;99.90;;;;;;5113380;28;20505;-65
2022/12/07 02:17:31;;;;;;;2.08;0.75;;;3.20;99.90;;;;;;5113318;28;20506;-64
2022/12/07 02:20:06;;;;;;;1.13;0.77;;;3.30;99.90;;;;;;5112035;28;20151;-65
2022/12/07 02:23:09;;;;;;;1.17;0.38;;;3.30;99.90;;;;;;5112997;28;20119;-64
2022/12/07 02:25:52;;;;;;;1.45;0.52;;;3.30;99.90;;;;;;5113189;28;20075;-65
2022/12/07 02:28:32;;;;;;;4.20;0.20;;;3.30;99.90;;;;;;5113273;28;20093;-64
2022/12/07 02:31:04;;;;;;;0.47;0.25;;;3.20;99.90;;;;;;5113250;28;20562;-64
2022/12/07 02:33:35;;;;;;;0.20;0.20;;;3.20;99.90;;;;;;5111652;28;20035;-64
2022/12/07 02:36:07;;;;;;;0.20;0.20;;;3.20;99.90;;;;;;5113098;28;20048;-64
2022/12/07 02:38:41;;;;;;;4.50;0.40;;;3.20;99.90;;;;;;5113202;28;20495;-64
2022/12/07 02:41:28;;;;;;;1.48;0.30;;;3.20;99.90;;;;;;5113147;28;20421;-64
2022/12/07 02:43:58;;;;;;;0.20;0.20;;;3.20;99.90;;;;;;5112624;28;20124;-64
2022/12/07 02:46:29;;;;;;;4.43;0.40;;;3.20;99.90;;;;;;5111473;28;20055;-64
2022/12/07 02:48:55;;;;;;;1.10;0.28;;;3.20;99.90;;;;;;5113051;28;20031;-64
2022/12/07 02:51:22;;;;;;;2.92;0.50;;;3.20;99.90;;;;;;5111492;28;20040;-68
2022/12/07 02:53:47;;;;;;;4.20;1.15;;;3.20;99.90;;;;;;5098371;28;20506;-64
2022/12/07 02:56:38;;;;;;;4.53;0.50;;;3.20;99.90;;;;;;5116680;28;20067;-64
2022/12/07 02:59:20;;;;;;;2.75;0.35;;;3.20;99.90;;;;;;5115180;28;20041;-64
2022/12/07 03:02:01;;;;;;;6.07;0.60;;;3.20;99.90;;;;;;5115057;28;20043;-65
2022/12/07 03:04:51;;;;;;;2.35;0.25;;;3.20;99.90;;;;;;5116124;28;20088;-64
2022/12/07 03:07:32;;;;;;;5.18;0.47;;;3.30;99.90;;;;;;5116476;28;20040;-64
2022/12/07 03:10:24;;;;;;;0.55;0.30;;;3.30;99.90;;;;;;5116135;28;20053;-64
2022/12/07 03:13:09;;;;;;;0.32;0.32;;;3.30;99.90;;;;;;5116104;27;20047;-64
2022/12/07 03:15:58;;;;;;;1.50;0.35;;;3.40;99.90;;;;;;5116309;28;20559;-64
2022/12/07 03:18:27;;;;;;;1.45;0.50;;;3.40;99.90;;;;;;5115952;28;20047;-64
2022/12/07 03:20:56;;;;;;;1.85;0.57;;;3.50;99.90;;;;;;5149408;27;20040;-64
2022/12/07 03:23:25;;;;;;;0.20;0.20;;;3.50;99.90;;;;;;5114945;28;20051;-64
2022/12/07 03:25:58;;;;;;;2.33;0.40;;;3.40;99.90;;;;;;5116022;28;20383;-64
2022/12/07 03:28:28;;;;;;;2.45;0.55;;;3.50;99.90;;;;;;5115785;28;20075;-64
2022/12/07 03:31:26;;;;;;;1.20;0.20;;;3.50;99.90;;;;;;5097591;28;20402;-64
2022/12/07 03:34:19;;;;;;;0.43;0.10;;;3.60;99.90;;;;;;5061570;28;20054;-64
2022/12/07 03:37:08;;;;;;;2.35;0.28;;;3.60;99.90;;;;;;5115679;28;20095;-65
2022/12/07 03:39:39;;;;;;;0.85;0.20;;;3.50;99.90;;;;;;5097374;28;20094;-64
2022/12/07 03:42:07;;;;;;;0.38;0.20;;;3.50;99.90;;;;;;5115888;28;20039;-65
2022/12/07 03:44:34;;;;;;;2.88;0.50;;;3.40;99.90;;;;;;5115328;28;20044;-65
2022/12/07 03:46:59;;;;;;;0.52;0.20;;;3.40;99.90;;;;;;5115677;28;20043;-65
2022/12/07 03:49:39;;;;;;;3.47;0.55;;;3.50;99.90;;;;;;5115635;28;20043;-65
2022/12/07 03:52:12;;;;;;;0.10;0.10;;;3.50;99.90;;;;;;5115633;28;20032;-64
2022/12/07 03:54:48;;;;;;;0.98;0.30;;;3.50;99.90;;;;;;5148834;27;20483;-64
2022/12/07 03:57:14;;;;;;;0.95;0.40;;;3.60;99.90;;;;;;5115535;28;20480;-65
2022/12/07 03:59:41;;;;;;;0.30;0.20;;;3.60;99.90;;;;;;5114039;28;20031;-65
2022/12/07 04:02:07;;;;;;;0.32;0.32;;;3.70;99.90;;;;;;5115419;28;20043;-64
2022/12/07 04:04:34;;;;;;;0.25;0.17;;;3.90;99.90;;;;;;5115280;28;20036;-64
2022/12/07 04:07:00;;;;;;;0.20;0.20;;;3.70;99.90;;;;;;5115307;28;20038;-64
2022/12/07 04:09:25;;;;;;;0.20;0.20;;;3.60;99.90;;;;;;5115243;28;20040;-64
2022/12/07 04:11:51;;;;;;;1.08;0.57;;;3.60;99.90;;;;;;5115249;28;20394;-64
2022/12/07 04:14:20;;;;;;;0.20;0.20;;;3.60;99.90;;;;;;5115147;28;20031;-64
2022/12/07 04:16:53;;;;;;;2.25;0.20;;;3.60;99.90;;;;;;5113945;28;20494;-64
2022/12/07 04:19:21;;;;;;;0.47;0.30;;;3.70;99.90;;;;;;5114800;28;20035;-64
2022/12/07 04:21:47;;;;;;;0.17;0.17;;;3.70;99.90;;;;;;5115043;28;20038;-64
2022/12/07 04:24:14;;;;;;;1.05;0.20;;;3.70;99.90;;;;;;5114865;28;20031;-64
2022/12/07 04:26:40;;;;;;;4.07;0.63;;;3.70;99.90;;;;;;5114933;28;20082;-64
2022/12/07 04:29:05;;;;;;;3.10;0.63;;;3.70;99.90;;;;;;5114878;28;20482;-64
2022/12/07 04:31:31;;;;;;;1.65;0.32;;;3.60;99.90;;;;;;5114518;28;20036;-64
2022/12/07 04:33:56;;;;;;;0.28;0.10;;;3.60;99.90;;;;;;5114783;28;20032;-64
2022/12/07 04:36:22;;;;;;;2.42;0.52;;;3.50;99.90;;;;;;5114730;28;20482;-64
2022/12/07 04:38:48;;;;;;;3.20;0.52;;;3.50;99.90;;;;;;5114457;28;20128;-64
2022/12/07 04:41:13;;;;;;;1.55;0.45;;;3.40;99.90;;;;;;5114622;28;20516;-64
2022/12/07 04:43:39;;;;;;;0.90;0.28;;;3.30;99.90;;;;;;5114424;28;20099;-64
2022/12/07 04:46:05;;;;;;;2.40;0.60;;;3.20;99.90;;;;;;5114543;28;20060;-64
2022/12/07 04:48:30;;;;;;;1.30;0.30;;;3.20;99.90;;;;;;5114433;28;20032;-65
2022/12/07 04:50:56;;;;;;;0.52;0.30;;;3.10;99.90;;;;;;5114144;28;20036;-65
2022/12/07 04:53:22;;;;;;;6.03;0.40;;;3.10;99.90;;;;;;5114423;28;20526;-64
2022/12/07 04:55:47;;;;;;;1.45;0.22;;;3.20;99.90;;;;;;5114454;28;20031;-65
2022/12/07 04:58:13;;;;;;;3.83;0.20;;;3.10;99.90;;;;;;5114306;28;20089;-64
2022/12/07 05:00:40;;;;;;;0.20;0.20;;;;;;;;;;5114326;28;20039;-64
2022/12/07 05:03:06;;;;;;;0.52;0.30;;;3.00;99.90;;;;;;5114177;28;20035;-64
2022/12/07 05:05:32;;;;;;;1.13;0.43;;;2.90;99.90;;;;;;5114084;28;20089;-64
2022/12/07 05:07:57;;;;;;;3.75;0.38;;;2.90;99.90;;;;;;5113836;28;20506;-64
2022/12/07 05:10:23;;;;;;;2.20;0.65;;;3.30;99.90;;;;;;5114169;28;20111;-64
2022/12/07 05:12:49;;;;;;;0.43;0.20;;;2.90;99.90;;;;;;5114056;28;20067;-64
2022/12/07 05:15:15;;;;;;;2.90;0.30;;;2.90;99.90;;;;;;5113581;28;20479;-64
2022/12/07 05:17:41;;;;;;;0.63;0.35;;;3.00;99.90;;;;;;5114032;28;20097;-64
2022/12/07 05:20:07;;;;;;;6.13;0.57;;;3.10;99.90;;;;;;5113612;28;20040;-64
2022/12/07 05:22:33;;;;;;;0.77;0.40;;;3.20;99.90;;;;;;5113980;28;20032;-64
2022/12/07 05:24:59;;;;;;;2.92;0.63;;;3.20;99.90;;;;;;5112475;28;20462;-64
2022/12/07 05:27:25;;;;;;;3.05;0.40;;;3.20;99.90;;;;;;5113556;28;20031;-65
2022/12/07 05:29:51;;;;;;;2.13;0.25;;;3.10;99.90;;;;;;5112256;28;20065;-64
2022/12/07 05:32:17;;;;;;;0.17;0.17;;;3.10;99.90;;;;;;5112334;28;20112;-64
2022/12/07 05:34:42;;;;;;;2.00;0.28;;;3.00;99.90;;;;;;5146995;27;20059;-64
2022/12/07 05:37:08;;;;;;;0.57;0.13;;;2.90;99.90;;;;;;5112532;28;20044;-64
2022/12/07 05:39:33;;;;;;;1.00;0.40;;;2.90;99.90;;;;;;5113715;28;20386;-64
2022/12/07 05:42:14;;;;;;;0.77;0.30;;;2.80;99.90;;;;;;5113624;28;20043;-65
2022/12/07 05:44:45;;;;;;;1.30;0.20;;;2.80;99.90;;;;;;5113334;28;20047;-64
2022/12/07 05:47:12;;;;;;;6.25;0.55;;;2.70;99.90;;;;;;5113651;28;20050;-64
2022/12/07 05:49:38;;;;;;;3.65;0.95;;;2.70;99.90;;;;;;5113617;28;20483;-64
2022/12/07 05:52:04;;;;;;;6.28;0.77;;;2.70;99.90;;;;;;5113285;28;20036;-64
2022/12/07 05:54:30;;;;;;;0.35;0.15;;;2.70;99.90;;;;;;5113244;28;20126;-64
2022/12/07 05:56:56;;;;;;;0.88;0.30;;;2.60;99.90;;;;;;5113554;28;20043;-64
2022/12/07 05:59:24;;;;;;;2.55;0.17;;;2.70;99.90;;;;;;5112167;28;20066;-64
2022/12/07 06:01:59;;;;;;;0.50;0.30;;;2.50;99.90;;;;;;5113510;28;20066;-64
2022/12/07 06:04:27;;;;;;;0.13;0.10;;;2.50;99.90;;;;;;5113412;28;20043;-63
2022/12/07 06:06:52;;;;;;;0.43;0.43;;;2.60;99.90;;;;;;5113427;28;20040;-64
2022/12/07 06:09:19;;;;;;;2.50;0.20;;;2.60;99.90;;;;;;5146455;27;20043;-64
2022/12/07 06:14:29;;;;;;;0.45;0.28;;;2.60;99.90;;;;;;5113290;28;20047;-63
2022/12/07 06:16:55;;;;;;;0.38;0.30;;;2.50;99.90;;;;;;5112990;28;20372;-64
2022/12/07 06:19:21;;;;;;;0.68;0.35;;;2.50;99.90;;;;;;5113048;28;20047;-64
2022/12/07 06:21:46;;;;;;;3.35;0.40;;;2.50;99.90;;;;;;5113686;28;20031;-64
2022/12/07 06:24:13;;;;;;;0.20;0.20;;;2.40;99.90;;;;;;5113131;28;20032;-64
2022/12/07 06:26:39;;;;;;;3.25;0.35;;;2.40;99.90;;;;;;5112096;28;20040;-64
2022/12/07 06:29:05;;;;;;;2.50;0.30;;;2.40;99.90;;;;;;5117197;28;20509;-65
2022/12/07 06:31:31;;;;;;;3.20;0.47;;;2.40;99.90;;;;;;5117172;28;20032;-65
2022/12/07 06:34:02;;;;;;;0.20;0.20;;;2.40;99.90;;;;;;5117166;28;20040;-63
2022/12/07 06:36:27;;;;;;;5.43;0.73;;;2.40;99.90;;;;;;5115633;28;20093;-64
2022/12/07 06:38:54;;;;;;;3.25;0.55;;;2.40;99.90;;;;;;5116977;28;20040;-63
2022/12/07 06:41:20;;;;;;;1.50;0.45;;;2.40;99.90;;;;;;5116942;28;20058;-63
2022/12/07 06:43:46;;;;;;;5.57;0.35;;;2.50;99.90;;;;;;5116403;28;20036;-64
2022/12/07 06:46:12;;;;;;;0.28;0.28;;;2.50;99.90;;;;;;5116538;28;20051;-64
2022/12/07 06:48:37;;;;;;;4.03;0.65;;;2.60;99.90;;;;;;5116637;28;20079;-64
2022/12/07 06:51:03;;;;;;;1.58;0.63;;;2.70;99.90;;;;;;5116759;28;20529;-63
2022/12/07 06:53:29;;;;;;;2.78;0.55;;;2.70;99.90;;;;;;5116716;28;20031;-62
2022/12/07 06:55:54;;;;;;;0.43;0.32;;;2.70;99.90;;;;;;5116559;28;20051;-63
2022/12/07 06:58:20;;;;;;;1.55;0.45;;;2.70;99.90;;;;;;5116582;28;20039;-62
2022/12/07 07:00:47;;;;;;;1.10;0.30;;;2.80;99.90;;;;;;5116555;28;20039;-62
2022/12/07 07:03:13;;;;;;;7.93;0.52;;;2.80;99.90;;;;;;5114960;28;20071;-63
2022/12/07 07:05:39;;;;;;;1.17;0.38;;;2.80;99.90;;;;;;5116442;28;20151;-61
2022/12/07 07:08:04;;;;;;;0.35;0.30;;;2.70;99.90;;;;;;5115174;28;20165;-64
2022/12/07 07:10:30;;;;;;;0.47;0.28;;;2.70;99.90;;;;;;5116421;28;20390;-62
2022/12/07 07:12:56;;;;;;;3.25;0.40;;;2.70;99.90;;;;;;5116403;28;20133;-62
2022/12/07 07:15:21;;;;;;;0.47;0.30;;;2.60;99.90;;;;;;5149249;27;20044;-63
2022/12/07 07:17:47;;;;;;;0.38;0.28;;;2.60;99.90;;;;;;5116266;28;20036;-63
2022/12/07 07:20:12;;;;;;;1.15;0.30;;;2.60;99.90;;;;;;5114674;28;20039;-63
2022/12/07 07:22:38;;;;;;;2.95;0.65;;;2.60;99.90;;;;;;5148874;27;20051;-63
2022/12/07 07:25:04;;;;;;;1.65;0.25;;;2.50;99.90;;;;;;5115845;28;20047;-63
2022/12/07 07:27:29;;;;;;;3.33;0.43;;;2.50;99.90;;;;;;5115992;28;20067;-63
2022/12/07 07:29:55;;;;;;;1.77;0.38;;;2.50;99.90;;;;;;5116039;28;20506;-63
2022/12/07 07:32:21;;;;;;;4.45;0.63;;;2.40;99.90;;;;;;5115986;28;20498;-64
2022/12/07 07:34:47;;;;;;;2.58;0.45;;;2.40;99.90;;;;;;5115704;28;20393;-64
2022/12/07 07:37:13;;;;;;;0.77;0.38;;;2.40;99.90;;;;;;5115219;28;20039;-63
2022/12/07 07:39:39;;;;;;;1.67;0.35;;;2.50;99.90;;;;;;5115124;28;20040;-63
2022/12/07 07:42:05;;;;;;;1.13;0.50;;;2.50;99.90;;;;;;5115538;28;20047;-63
2022/12/07 07:44:31;;;;;;;0.30;0.20;;;2.60;99.90;;;;;;5115199;28;20071;-63
2022/12/07 07:46:56;;;;;;;6.63;0.55;;;2.60;99.90;;;;;;5115472;28;20036;-63
2022/12/07 07:49:22;;;;;;;1.90;0.40;;;2.70;99.90;;;;;;5115434;28;20043;-63
2022/12/07 07:51:47;;;;;;;5.30;0.32;;;2.80;99.90;;;;;;5115383;28;20087;-63
2022/12/07 07:54:13;;;;;;;0.65;0.50;;;2.90;99.90;;;;;;5115352;28;20036;-64
2022/12/07 07:56:39;;;;;;;3.10;0.40;;;2.80;99.90;;;;;;5113822;28;20035;-64
2022/12/07 07:59:04;;;;;;;1.02;0.50;;;2.90;99.90;;;;;;5114941;28;20040;-64
2022/12/07 08:01:30;;;;;;;2.17;0.40;;;2.90;99.90;;;;;;5115214;28;20032;-66
2022/12/07 08:03:55;;;;;;;2.30;0.30;;;2.90;99.90;;;;;;5147967;27;20036;-64
2022/12/07 08:06:21;;;;;;;1.30;0.32;;;2.90;99.90;;;;;;5114747;28;20036;-64
2022/12/07 08:08:46;;;;;;;1.55;0.50;;;2.80;99.90;;;;;;5096600;28;20040;-64
2022/12/07 08:11:12;;;;;;;0.77;0.28;;;2.80;99.90;;;;;;5115010;28;20046;-64
2022/12/07 08:13:37;;;;;;;0.55;0.40;;;2.80;99.90;;;;;;5114775;28;20042;-64
2022/12/07 08:16:08;;;;;;;0.25;0.17;;;2.80;99.90;;;;;;5114954;28;20048;-64
2022/12/07 08:18:41;;;;;;;4.18;0.40;;;2.70;99.90;;;;;;5114538;28;20494;-64
2022/12/07 08:21:11;;;;;;;0.68;0.47;;;2.70;99.90;;;;;;5114827;28;20120;-64
2022/12/07 08:23:37;;;;;;;3.08;1.20;;;2.70;99.90;;;;;;5114832;28;20578;-64
2022/12/07 08:26:07;;;;;;;4.43;0.88;;;2.60;99.90;;;;;;5114661;28;20040;-64
2022/12/07 08:28:32;;;;;;;2.08;0.55;;;2.60;99.90;;;;;;5114651;28;20036;-64
2022/12/07 08:31:06;;;;;;;1.17;0.50;;;2.60;99.90;;;;;;5114682;28;20165;-64
2022/12/07 08:33:33;;;;;;;0.13;0.13;;;2.60;99.90;;;;;;5113193;28;20039;-64
2022/12/07 08:36:06;;;;;;;0.50;0.35;;;2.60;99.90;;;;;;5113504;28;20486;-64
2022/12/07 08:38:31;;;;;;;0.52;0.28;;;2.60;99.90;;;;;;5147463;27;20044;-64
2022/12/07 08:40:58;;;;;;;1.60;0.38;;;2.60;99.90;;;;;;5114630;28;20054;-64
2022/12/07 08:43:24;;;;;;;1.15;0.40;;;2.70;99.90;;;;;;5113422;28;20197;-64
2022/12/07 08:46:13;;;;;;;0.88;0.40;;;2.70;99.90;;;;;;5114016;27;20134;-64
2022/12/07 08:48:44;;;;;;;1.85;0.77;;;2.80;99.90;;;;;;5103292;28;20073;-64
2022/12/07 08:51:10;;;;;;;3.35;0.90;;;2.80;99.90;;;;;;5113589;28;20040;-64
2022/12/07 08:53:38;;;;;;;1.65;0.38;;;2.90;99.90;;;;;;5114505;28;20115;-64
2022/12/07 08:56:05;;;;;;;4.30;0.93;;;2.90;99.90;;;;;;5114423;28;20503;-64
2022/12/07 08:58:32;;;;;;;2.75;0.68;;;2.90;99.90;;;;;;5114135;28;20455;-64
2022/12/07 09:00:58;;;;;;;2.38;0.82;;;3.00;99.90;;;;;;5114310;28;20122;-64
2022/12/07 09:03:24;;;;;;;1.45;0.50;;;3.00;99.90;;;;;;5114180;28;20118;-64
2022/12/07 09:05:50;;;;;;;4.78;0.43;;;;;;;;;;5113855;28;20058;-64
2022/12/07 09:08:16;;;;;;;2.70;0.68;;;3.10;99.90;;;;;;5113907;28;20070;-64
2022/12/07 09:10:41;;;;;;;5.72;0.75;;;3.10;99.90;;;;;;5114131;28;20115;-64
2022/12/07 09:13:07;;;;;;;2.80;0.70;;;3.10;99.90;;;;;;5114083;28;20039;-64
2022/12/07 09:15:33;;;;;;;0.55;0.47;;;3.10;99.90;;;;;;5114135;28;20535;-64
2022/12/07 09:17:58;;;;;;;2.60;0.68;;;3.30;99.90;;;;;;5113982;28;20048;-64
2022/12/07 09:20:24;;;;;;;6.40;1.00;;;3.30;99.90;;;;;;5113944;28;20475;-64
2022/12/07 09:22:50;;;;;;;4.75;0.82;;;3.30;99.90;;;;;;5113653;28;20039;-64
2022/12/07 09:25:15;;;;;;;4.20;0.55;;;3.30;99.90;;;;;;5113878;28;20040;-64
2022/12/07 09:27:41;;;;;;;8.02;0.73;;;3.20;99.90;;;;;;5112290;28;20065;-64
2022/12/07 09:30:07;;;;;;;1.02;0.52;;;3.30;99.90;;;;;;5112571;28;20032;-64
2022/12/07 09:32:33;;;;;;;0.32;0.32;;;3.30;99.90;;;;;;5112305;28;20475;-65
2022/12/07 09:34:58;;;;;;;2.35;0.60;;;3.30;99.90;;;;;;5146862;27;20112;-64
2022/12/07 09:37:24;;;;;;;3.60;0.47;;;3.40;99.90;;;;;;5114045;28;20039;-64
2022/12/07 09:39:49;;;;;;;3.15;0.63;;;3.40;99.90;;;;;;5113700;28;20036;-64
2022/12/07 09:42:54;;;;;;;0.75;0.45;;;3.50;99.90;;;;;;5146549;27;20047;-64
2022/12/07 09:45:38;;;;;;;0.30;0.30;;;3.70;99.90;;;;;;5111884;28;20117;-63
2022/12/07 09:48:04;;;;;;;2.35;0.50;;;3.80;99.90;;;;;;5113688;28;20040;-64
2022/12/07 09:50:30;;;;;;;2.38;0.50;;;4.00;99.90;;;;;;5112352;28;20089;-65
2022/12/07 09:53:09;;;;;;;3.50;0.57;;;4.20;99.90;;;;;;5146618;27;20083;-64
2022/12/07 09:55:37;;;;;;;2.50;0.50;;;4.20;99.90;;;;;;5113550;28;20538;-64
2022/12/07 09:58:03;;;;;;;5.22;0.95;;;4.30;99.90;;;;;;5113486;28;20036;-64
2022/12/07 10:00:29;;;;;;;2.33;0.60;;;4.40;99.90;;;;;;5113613;28;20043;-64
2022/12/07 10:03:02;;;;;;;0.65;0.30;;;4.40;99.90;;;;;;5117796;28;20378;-64
2022/12/07 10:05:31;;;;;;;7.90;0.80;;;4.40;99.90;;;;;;5116441;28;20043;-64
2022/12/07 10:07:57;;;;;;;12.35;0.93;;;4.40;99.90;;;;;;5116147;28;20168;-65
2022/12/07 10:10:38;;;;;;;8.00;1.15;;;4.40;99.90;;;;;;5116355;28;20453;-64
2022/12/07 10:13:15;;;;;;;3.30;0.82;;;4.50;99.90;;;;;;5117600;28;20035;-64
2022/12/07 10:15:53;;;;;;;4.30;0.77;;;4.50;99.90;;;;;;5115980;28;20048;-64
2022/12/07 10:18:37;;;;;;;2.15;0.95;;;4.40;99.90;;;;;;5115995;28;20070;-64
2022/12/07 10:21:13;;;;;;;0.93;0.50;;;4.50;99.90;;;;;;5117421;27;20074;-64
2022/12/07 10:24:01;;;;;;;3.22;0.95;;;4.50;99.90;;;;;;5117389;28;20040;-64
2022/12/07 10:26:34;;;;;;;3.75;0.70;;;4.60;99.90;;;;;;5117290;28;20096;-64
2022/12/07 10:29:14;;;;;;;4.68;0.90;;;4.60;99.90;;;;;;5117284;28;20039;-65
2022/12/07 10:31:40;;;;;;;1.35;0.68;;;4.90;99.90;;;;;;5116931;28;20027;-65
2022/12/07 10:34:24;;;;;;;1.35;0.57;;;4.60;99.90;;;;;;5115910;28;20486;-65
2022/12/07 10:36:50;;;;;;;0.63;0.38;;;4.60;99.90;;;;;;5115975;28;20119;-64
2022/12/07 10:39:19;;;;;;;0.73;0.40;;;4.60;99.90;;;;;;5115575;28;20047;-65
2022/12/07 10:41:58;;;;;;;0.70;0.30;;;4.60;99.90;;;;;;5117072;28;20427;-66
2022/12/07 10:44:27;;;;;;;0.65;0.50;;;4.60;99.90;;;;;;5116628;28;20059;-65
2022/12/07 10:47:35;;;;;;;0.65;0.40;;;4.60;99.90;;;;;;5116858;28;20410;-65
2022/12/07 10:50:28;;;;;;;1.58;0.35;;;4.60;99.90;;;;;;5116825;28;20043;-65
2022/12/07 10:53:18;;;;;;;3.10;0.60;;;4.70;99.90;;;;;;5116820;28;20051;-65
2022/12/07 10:56:13;;;;;;;1.67;0.80;;;4.70;99.90;;;;;;5116467;28;20039;-65
2022/12/07 10:59:05;;;;;;;1.48;0.45;;;4.80;99.90;;;;;;5116720;28;20112;-65
2022/12/07 11:01:37;;;;;;;1.33;0.70;;;4.90;99.90;;;;;;5116357;28;20047;-63
2022/12/07 11:04:29;;;;;;;1.60;0.20;;;4.90;99.90;;;;;;5116601;28;20040;-63
2022/12/07 11:07:14;;;;;;;1.75;0.65;;;5.00;99.90;;;;;;5116255;28;20079;-63
2022/12/07 11:10:03;;;;;;;3.58;0.43;;;5.10;99.90;;;;;;5116459;28;20039;-63
2022/12/07 11:12:43;;;;;;;1.48;0.40;;;5.10;99.90;;;;;;5115685;28;20513;-64
2022/12/07 11:15:33;;;;;;;0.35;0.30;;;5.20;99.90;;;;;;5116419;28;20402;-63
2022/12/07 11:18:14;;;;;;;3.53;0.90;;;5.20;99.90;;;;;;5116346;28;20494;-63
2022/12/07 11:20:53;;;;;;;1.20;0.73;;;5.20;99.90;;;;;;5116352;27;20036;-64
2022/12/07 11:23:26;;;;;;;0.55;0.40;;;5.20;99.90;;;;;;5116248;28;20402;-64
2022/12/07 11:26:10;;;;;;;3.70;0.70;;;5.20;99.90;;;;;;5115774;28;20043;-64
2022/12/07 11:29:02;;;;;;;1.85;0.55;;;5.10;99.90;;;;;;5116170;28;20044;-65
2022/12/07 11:31:49;;;;;;;6.30;0.98;;;5.10;99.90;;;;;;5114521;28;20455;-64
2022/12/07 11:34:37;;;;;;;3.58;0.80;;;5.10;99.90;;;;;;5115985;28;20486;-64
2022/12/07 11:37:12;;;;;;;5.32;0.93;;;5.00;99.90;;;;;;5115993;28;20074;-64
2022/12/07 11:39:47;;;;;;;1.17;0.60;;;5.00;99.90;;;;;;5115687;28;20040;-64
2022/12/07 11:42:29;;;;;;;0.80;0.60;;;4.90;99.90;;;;;;5114614;28;20536;-65
2022/12/07 11:45:01;;;;;;;1.23;0.32;;;4.70;99.90;;;;;;5115411;28;20068;-64
2022/12/07 11:47:34;;;;;;;1.05;0.40;;;4.60;99.90;;;;;;5115824;28;20501;-64
2022/12/07 11:50:00;;;;;;;2.05;0.30;;;4.40;99.90;;;;;;5115495;28;20039;-64
2022/12/07 11:52:50;;;;;;;0.55;0.20;;;4.30;99.90;;;;;;5115703;28;20069;-64
2022/12/07 11:55:32;;;;;;;0.30;0.20;;;4.20;99.90;;;;;;5099838;28;20062;-64
2022/12/07 11:58:32;;;;;;;0.28;0.28;;;4.20;99.90;;;;;;5115258;28;20078;-64
2022/12/07 12:01:25;;;;;;;0.15;0.15;;;4.20;99.90;;;;;;5090146;28;20059;-64
2022/12/07 12:03:56;;;;;;;0.25;0.20;;;4.20;99.90;;;;;;5114254;28;20082;-63
2022/12/07 12:06:22;;;;;;;0.30;0.30;;;4.30;99.90;;;;;;5113815;28;20046;-61
2022/12/07 12:08:50;;;;;;;0.10;0.10;;;4.40;99.90;;;;;;5115410;28;20047;-62
2022/12/07 12:11:39;;;;;;;1.60;0.55;;;4.40;99.90;;;;;;5115268;28;20032;-62
2022/12/07 12:14:22;;;;;;;3.42;0.40;;;4.50;99.90;;;;;;5115203;28;20399;-61
2022/12/07 12:17:02;;;;;;;1.98;0.70;;;4.60;99.90;;;;;;5115315;28;20035;-61
2022/12/07 12:19:36;;;;;;;0.20;0.20;;;4.70;99.90;;;;;;5115197;28;20426;-62
2022/12/07 12:22:18;;;;;;;0.38;0.20;;;4.80;99.90;;;;;;5113791;28;20032;-62
2022/12/07 12:24:50;;;;;;;2.40;0.43;;;4.90;99.90;;;;;;5113885;28;20079;-67
2022/12/07 12:27:27;;;;;;;0.25;0.20;;;5.00;99.90;;;;;;5115013;28;20032;-63
2022/12/07 12:29:56;;;;;;;1.15;0.60;;;5.00;99.90;;;;;;5114889;28;20084;-63
2022/12/07 12:32:42;;;;;;;1.20;0.40;;;;;;;;;;5114917;28;20067;-63
2022/12/07 12:35:26;;;;;;;2.13;0.60;;;5.10;99.90;;;;;;5114392;28;20418;-65
2022/12/07 12:37:53;;;;;;;2.85;0.40;;;5.10;99.90;;;;;;5114758;28;20126;-63
2022/12/07 12:40:21;;;;;;;1.50;0.40;;;5.10;99.90;;;;;;5114710;28;20040;-65
2022/12/07 12:42:55;;;;;;;0.77;0.55;;;5.10;99.90;;;;;;5147740;27;20546;-64
2022/12/07 12:45:29;;;;;;;2.35;0.40;;;5.10;99.90;;;;;;5114144;28;20051;-63
2022/12/07 12:48:24;;;;;;;0.45;0.32;;;5.10;99.90;;;;;;5114230;28;20079;-63
2022/12/07 12:51:28;;;;;;;0.40;0.40;;;5.00;99.90;;;;;;5114166;28;20163;-63
2022/12/07 12:54:04;;;;;;;1.50;0.50;;;5.00;99.90;;;;;;5114079;28;20035;-64
2022/12/07 12:57:03;;;;;;;0.93;0.40;;;4.90;99.90;;;;;;5114471;28;20043;-64
2022/12/07 12:59:35;;;;;;;4.28;0.95;;;5.00;99.90;;;;;;5114360;28;20555;-64
2022/12/07 13:02:33;;;;;;;2.08;0.73;;;5.00;99.90;;;;;;5114070;28;20460;-64
2022/12/07 13:05:09;;;;;;;5.97;0.60;;;5.10;99.90;;;;;;5114216;28;20043;-64
2022/12/07 13:07:47;;;;;;;1.33;0.40;;;5.10;99.90;;;;;;5114278;28;20051;-64
2022/12/07 13:10:30;;;;;;;0.55;0.50;;;5.20;99.90;;;;;;5114153;28;20050;-64
2022/12/07 13:13:17;;;;;;;0.30;0.30;;;5.10;99.90;;;;;;5113855;28;20044;-64
2022/12/07 13:15:48;;;;;;;3.08;1.00;;;5.20;99.90;;;;;;5114056;27;20100;-63
2022/12/07 13:18:32;;;;;;;5.80;0.63;;;5.20;99.90;;;;;;5113774;28;20035;-63
2022/12/07 13:21:07;;;;;;;3.92;0.68;;;5.10;99.90;;;;;;5113921;28;20047;-62
2022/12/07 13:23:44;;;;;;;3.58;0.70;;;5.10;99.90;;;;;;5113851;28;20044;-62